Portada
METAR-TAF:

METAR-TAF

Aeroports :

Aeroport Internacional Diori Hamani

Niamey, Níger

latitud: 13-29N, longitud: 002-10E, altitud: 223 m

Observació

L'informe es va fer fa 24 minuts, a les 05:00 UTC
Vent 1 kt amb direcció variable
Temperatura 23°C
Humitat 38%
Pressió 1011 hPa
Visibilitat: 4000 m
Pols estès

METAR: DRRN 200500Z VRB01KT 4000 DU NSC 23/08 Q1011 NOSIG

Hora: 06:24 (05:24 UTC)

Pronòstic

L'informe es va fer fa 6 hores i 24 minuts, a les 23:00 UTC
Pronòstic vàlid del 20 a les 00 UTC al 21 a les 06 UTC
Vent 8 kt del Sud-Est
Visibilitat: 4000 m
Pols estès
Temporalment
l' 20 a les 06 UTC al 20 a les 10 UTC
Visibilitat: 2800 m
Evolucionant progressivament
l' 20 a les 12 UTC al 20 a les 14 UTC
Visibilitat: 6000 m

TAF: DRRN 192300Z 2000/2106 14008KT 4000 DU NSC TEMPO 2006/2010 2800 BECMG 2012/2014 6000 NSW

Observacions i pronòstics meteorològics de més de 4000 aeroports (METAR i TAF).

Les estacions disponibles són els punts grocs i vermells al mapa.

Posi el ratolí al punt desitjat per veure el nom de l'estació.

Feu clic per veure les observacions i els pronòstics meteorològics.

Per canviar el mapa: feu clic els botons verds amb una creu de color negre per apropar; al botó verd amb un guió per allunyar la imatge; o en les fletxes verdes per a mapes adjacents.


METAR-TAF: